Princeville, Hawaii
Current Conditions -  °F | °C
As of 12:53 PM on Tuesday 25 Nov 2014 (Local Time) from PHLI Reporting Station
Few Clouds Few Clouds  
Wind Chill: 79°   Ceiling: Unl
Heat Index: 80°   Visibility: 10mi
Dew Point: 58°   Wind: 18mph
Humidity: 48%   Direction: 20°NNE
Pressure: 30.03"   Gusts: NA
Location:  22.22°N, 159.48°W
Report Text: PHLI 252253Z 02016KT 10SM FEW039 26/14 A3003 RMK AO2 SLP168 T02610144 $
Loading
Personal Weather Stations






























Interactive Weather Map New forecast layout! Learn more

10-Day Weather Forecast

Advertisements
Track Severe Weather on mobile